Time;durP1;ratioP1;P1;durP2;ratioP2;P2;SDS_P1;SDS_P2;PMS_P1;PMS_P2;Temp;Humidity;BMP_temperature;BMP_pressure;BME280_temperature;BME280_humidity;BME280_pressure;Samples;Min_cycle;Max_cycle;Signal;HPM_P1;HPM_P2
2021/08/20 00:02:14;;;;;;;;;;;14.90;99.90;;;;;;5078925;28;19957;-77
2021/08/20 00:04:40;;;;;;;;;;;15.00;99.90;;;;;;5072309;28;19952;-83
2021/08/20 00:07:06;;;;;;;;;;;15.00;99.90;;;;;;5093223;28;19931;-80
2021/08/20 00:09:31;;;;;;;;;;;15.00;99.90;;;;;;5096321;28;20011;-81
2021/08/20 00:11:57;;;;;;;;;;;14.90;99.90;;;;;;5097061;28;19912;-78
2021/08/20 00:14:22;;;;;;;;;;;14.90;99.90;;;;;;5094667;28;19912;-83
2021/08/20 00:16:48;;;;;;;;;;;14.90;99.90;;;;;;5082981;28;19920;-82
2021/08/20 00:19:14;;;;;;;;;;;14.90;99.90;;;;;;5107855;28;19916;-77
2021/08/20 00:21:39;;;;;;;;;;;14.90;99.90;;;;;;5073979;28;19917;-79
2021/08/20 00:24:05;;;;;;;;;;;15.00;99.90;;;;;;5077873;28;19916;-77
2021/08/20 00:26:31;;;;;;;;;;;15.00;99.90;;;;;;5073153;28;19912;-76
2021/08/20 00:28:57;;;;;;;;;;;15.00;99.90;;;;;;5090051;28;19919;-77
2021/08/20 00:31:22;;;;;;;;;;;15.00;99.90;;;;;;5067212;28;19923;-77
2021/08/20 00:33:48;;;;;;;;;;;15.00;99.90;;;;;;5080222;28;19920;-84
2021/08/20 00:36:13;;;;;;;;;;;15.00;99.90;;;;;;5068975;28;20331;-78
2021/08/20 00:38:39;;;;;;;;;;;14.90;99.90;;;;;;5068530;28;19912;-81
2021/08/20 00:41:08;;;;;;;;;;;14.80;99.90;;;;;;5087486;28;19912;-77
2021/08/20 00:43:33;;;;;;;;;;;14.80;99.90;;;;;;5080141;28;20303;-77
2021/08/20 00:46:00;;;;;;;;;;;14.80;99.90;;;;;;5090027;28;19919;-80
2021/08/20 00:48:26;;;;;;;;;;;14.70;99.90;;;;;;5087562;28;19920;-82
2021/08/20 00:50:57;;;;;;;;;;;14.70;99.90;;;;;;5066032;28;19932;-79
2021/08/20 00:53:23;;;;;;;;;;;14.70;99.90;;;;;;5071841;28;19952;-77
2021/08/20 00:55:49;;;;;;;;;;;14.70;99.90;;;;;;5089986;28;20360;-76
2021/08/20 00:58:14;;;;;;;;;;;14.70;99.90;;;;;;5086101;28;19955;-80
2021/08/20 01:00:40;;;;;;;;;;;14.70;99.90;;;;;;5070830;28;19913;-77
2021/08/20 01:03:06;;;;;;;;;;;14.80;99.90;;;;;;5087875;28;20251;-77
2021/08/20 01:05:31;;;;;;;;;;;14.80;99.90;;;;;;5089715;28;19924;-77
2021/08/20 01:07:58;;;;;;;;;;;14.80;99.90;;;;;;5080519;28;20318;-79
2021/08/20 01:10:23;;;;;;;;;;;14.80;99.90;;;;;;5087584;28;19943;-80
2021/08/20 01:12:49;;;;;;;;;;;14.80;99.90;;;;;;5083737;28;19962;-79
2021/08/20 01:15:14;;;;;;;;;;;14.80;99.90;;;;;;5084486;28;19998;-77
2021/08/20 01:17:40;;;;;;;;;;;14.90;99.90;;;;;;5067202;28;19965;-77
2021/08/20 01:20:08;;;;;;;;;;;14.80;99.90;;;;;;5089476;28;19926;-77
2021/08/20 01:22:33;;;;;;;;;;;14.70;99.90;;;;;;5069191;28;19918;-80
2021/08/20 01:25:02;;;;;;;;;;;14.60;99.90;;;;;;5090109;28;19916;-77
2021/08/20 01:27:28;;;;;;;;;;;14.70;99.90;;;;;;5083405;28;19995;-78
2021/08/20 01:29:54;;;;;;;;;;;14.70;99.90;;;;;;5079325;28;19919;-80
2021/08/20 01:32:19;;;;;;;;;;;14.60;99.90;;;;;;5063491;28;19917;-76
2021/08/20 01:34:45;;;;;;;;;;;14.60;99.90;;;;;;5067392;28;20284;-81
2021/08/20 01:37:11;;;;;;;;;;;14.60;99.90;;;;;;5069887;28;19927;-82
2021/08/20 01:39:36;;;;;;;;;;;14.60;99.90;;;;;;5082640;28;19912;-77
2021/08/20 01:42:02;;;;;;;;;;;14.60;99.90;;;;;;5071308;28;19959;-75
2021/08/20 01:44:28;;;;;;;;;;;14.70;99.90;;;;;;5072906;28;20347;-78
2021/08/20 01:46:53;;;;;;;;;;;14.80;99.90;;;;;;5086917;28;19936;-76
2021/08/20 01:49:19;;;;;;;;;;;14.80;99.90;;;;;;5079322;28;19912;-77
2021/08/20 01:51:44;;;;;;;;;;;14.90;99.90;;;;;;5086582;28;19912;-78
2021/08/20 01:54:10;;;;;;;;;;;14.90;99.90;;;;;;5069597;28;20459;-76
2021/08/20 01:56:36;;;;;;;;;;;14.90;99.90;;;;;;5064738;28;19927;-77
2021/08/20 01:59:02;;;;;;;;;;;14.90;99.90;;;;;;5085007;28;19920;-77
2021/08/20 02:01:31;;;;;;;;;;;14.90;99.90;;;;;;5069176;28;19983;-77
2021/08/20 02:03:57;;;;;;;;;;;14.90;99.90;;;;;;5064215;28;20011;-77
2021/08/20 02:06:23;;;;;;;;;;;14.90;99.90;;;;;;5074406;28;20315;-83
2021/08/20 02:08:49;;;;;;;;;;;14.90;99.90;;;;;;5094615;28;19908;-82
2021/08/20 02:11:14;;;;;;;;;;;14.90;99.90;;;;;;5075828;28;19912;-77
2021/08/20 02:13:40;;;;;;;;;;;15.00;99.90;;;;;;5076660;28;20344;-82
2021/08/20 02:16:06;;;;;;;;;;;15.00;99.90;;;;;;5089218;28;19920;-76
2021/08/20 02:18:32;;;;;;;;;;;15.00;99.90;;;;;;5076939;28;19916;-78
2021/08/20 02:20:58;;;;;;;;;;;15.10;99.90;;;;;;5088547;28;19994;-80
2021/08/20 02:23:23;;;;;;;;;;;15.10;99.90;;;;;;5099212;28;20310;-77
2021/08/20 02:25:49;;;;;;;;;;;15.10;99.90;;;;;;5065081;28;19912;-77
2021/08/20 02:28:14;;;;;;;;;;;15.20;99.90;;;;;;5091524;28;19920;-84
2021/08/20 02:30:40;;;;;;;;;;;15.20;99.90;;;;;;5064121;28;20322;-79
2021/08/20 02:33:06;;;;;;;;;;;15.20;99.90;;;;;;5081392;28;19916;-78
2021/08/20 02:35:32;;;;;;;;;;;15.20;99.90;;;;;;5066496;28;19947;-78
2021/08/20 02:37:58;;;;;;;;;;;15.30;99.90;;;;;;5075706;28;19916;-78
2021/08/20 02:40:23;;;;;;;;;;;15.30;99.90;;;;;;5068669;28;20318;-82
2021/08/20 02:42:49;;;;;;;;;;;15.40;99.90;;;;;;5083537;28;19908;-78
2021/08/20 02:45:15;;;;;;;;;;;15.40;99.90;;;;;;5086964;28;19977;-82
2021/08/20 02:47:40;;;;;;;;;;;15.40;99.90;;;;;;5069892;28;19923;-79
2021/08/20 02:50:06;;;;;;;;;;;15.40;99.90;;;;;;5073420;28;19927;-79
2021/08/20 02:52:32;;;;;;;;;;;15.40;99.90;;;;;;5090150;28;19916;-78
2021/08/20 02:54:58;;;;;;;;;;;15.40;99.90;;;;;;5097225;28;19982;-78
2021/08/20 02:57:27;;;;;;;;;;;15.40;99.90;;;;;;5096972;28;19924;-77
2021/08/20 02:59:53;;;;;;;;;;;15.40;99.90;;;;;;5097458;28;19916;-85
2021/08/20 03:02:19;;;;;;;;;;;15.40;99.90;;;;;;5083746;28;20279;-77
2021/08/20 03:04:45;;;;;;;;;;;15.40;99.90;;;;;;5097573;28;20018;-81
2021/08/20 03:07:10;;;;;;;;;;;15.50;99.90;;;;;;5096679;28;19942;-78
2021/08/20 03:09:36;;;;;;;;;;;15.50;99.90;;;;;;5089494;28;19927;-78
2021/08/20 03:12:01;;;;;;;;;;;15.50;99.90;;;;;;5095258;28;19920;-77
2021/08/20 03:14:27;;;;;;;;;;;15.50;99.90;;;;;;5092276;28;19924;-77
2021/08/20 03:16:53;;;;;;;;;;;15.50;99.90;;;;;;5081096;28;20386;-77
2021/08/20 03:19:18;;;;;;;;;;;15.40;99.90;;;;;;5069818;28;20011;-77
2021/08/20 03:21:44;;;;;;;;;;;15.40;99.90;;;;;;5076377;28;20338;-80
2021/08/20 03:24:10;;;;;;;;;;;15.50;99.90;;;;;;5090931;28;19965;-82
2021/08/20 03:26:35;;;;;;;;;;;15.40;99.90;;;;;;5087248;28;19920;-77
2021/08/20 03:29:01;;;;;;;;;;;15.50;99.90;;;;;;5095522;28;19920;-80
2021/08/20 03:31:27;;;;;;;;;;;15.50;99.90;;;;;;5094919;28;19916;-80
2021/08/20 03:33:54;;;;;;;;;;;15.40;99.90;;;;;;5073474;28;19928;-80
2021/08/20 03:36:23;;;;;;;;;;;15.50;99.90;;;;;;5078067;28;20242;-82
2021/08/20 03:38:52;;;;;;;;;;;15.50;99.90;;;;;;5093758;28;19916;-78
2021/08/20 03:41:18;;;;;;;;;;;15.60;99.90;;;;;;5092665;28;19912;-75
2021/08/20 03:43:44;;;;;;;;;;;15.60;99.90;;;;;;5071267;28;19920;-77
2021/08/20 03:46:10;;;;;;;;;;;15.60;99.90;;;;;;5091226;28;20368;-75
2021/08/20 03:48:36;;;;;;;;;;;15.60;99.90;;;;;;5073944;28;20516;-80
2021/08/20 03:51:02;;;;;;;;;;;15.60;99.90;;;;;;5095083;28;19964;-78
2021/08/20 03:53:28;;;;;;;;;;;15.60;99.90;;;;;;5076313;28;19970;-80
2021/08/20 03:55:54;;;;;;;;;;;15.60;99.90;;;;;;5091463;28;19924;-74
2021/08/20 03:58:19;;;;;;;;;;;15.50;99.90;;;;;;5074122;28;20262;-77
2021/08/20 04:00:51;;;;;;;;;;;15.50;99.90;;;;;;5093237;28;20011;-80
2021/08/20 04:03:18;;;;;;;;;;;15.50;99.90;;;;;;5092542;28;19912;-78
2021/08/20 04:05:43;;;;;;;;;;;15.50;99.90;;;;;;5092202;28;19916;-79
2021/08/20 04:08:09;;;;;;;;;;;15.50;99.90;;;;;;5076271;28;19912;-74
2021/08/20 04:10:34;;;;;;;;;;;15.50;99.90;;;;;;5092303;28;20407;-73
2021/08/20 04:13:00;;;;;;;;;;;15.60;99.90;;;;;;5094127;28;19916;-73
2021/08/20 04:15:26;;;;;;;;;;;15.60;99.90;;;;;;5094369;28;19974;-72
2021/08/20 04:17:51;;;;;;;;;;;15.70;99.90;;;;;;5093794;28;19916;-73
2021/08/20 04:20:17;;;;;;;;;;;15.70;99.90;;;;;;5077579;28;19955;-73
2021/08/20 04:22:42;;;;;;;;;;;15.70;99.90;;;;;;5091907;28;19919;-73
2021/08/20 04:25:08;;;;;;;;;;;15.70;99.90;;;;;;5082811;28;19920;-73
2021/08/20 04:27:34;;;;;;;;;;;15.70;99.90;;;;;;5089743;28;19915;-73
2021/08/20 04:29:59;;;;;;;;;;;15.70;99.90;;;;;;5092740;28;19921;-74
2021/08/20 04:32:25;;;;;;;;;;;15.70;99.90;;;;;;5090944;28;20215;-73
2021/08/20 04:34:50;;;;;;;;;;;15.60;99.90;;;;;;5078482;28;19916;-74
2021/08/20 04:37:19;;;;;;;;;;;15.70;99.90;;;;;;5091192;28;20330;-73
2021/08/20 04:39:45;;;;;;;;;;;15.60;99.90;;;;;;5092050;28;20321;-73
2021/08/20 04:42:11;;;;;;;;;;;15.70;99.90;;;;;;5075330;28;19916;-73
2021/08/20 04:44:36;;;;;;;;;;;15.60;99.90;;;;;;5076521;28;19924;-73
2021/08/20 04:47:02;;;;;;;;;;;15.60;99.90;;;;;;5076819;28;19935;-73
2021/08/20 04:49:27;;;;;;;;;;;15.60;99.90;;;;;;5092021;28;19913;-73
2021/08/20 04:51:53;;;;;;;;;;;15.60;99.90;;;;;;5091938;28;19912;-74
2021/08/20 04:54:19;;;;;;;;;;;15.60;99.90;;;;;;5076111;28;20504;-73
2021/08/20 04:56:46;;;;;;;;;;;15.60;99.90;;;;;;5088693;28;19928;-75
2021/08/20 04:59:12;;;;;;;;;;;15.60;99.90;;;;;;5093607;28;19912;-74
2021/08/20 05:01:37;;;;;;;;;;;15.60;99.90;;;;;;5075753;28;20306;-74
2021/08/20 05:04:03;;;;;;;;;;;15.60;99.90;;;;;;5075867;28;19920;-74
2021/08/20 05:06:29;;;;;;;;;;;15.70;99.90;;;;;;5092845;28;19913;-73
2021/08/20 05:08:55;;;;;;;;;;;15.70;99.90;;;;;;5093445;28;19966;-74
2021/08/20 05:11:20;;;;;;;;;;;15.70;99.90;;;;;;5094177;28;20329;-74
2021/08/20 05:13:46;;;;;;;;;;;15.70;99.90;;;;;;5073877;28;19920;-73
2021/08/20 05:16:11;;;;;;;;;;;15.70;99.90;;;;;;5091362;28;20227;-75
2021/08/20 05:18:37;;;;;;;;;;;15.80;99.90;;;;;;5091021;28;19920;-73
2021/08/20 05:21:03;;;;;;;;;;;15.80;99.90;;;;;;5091383;28;19916;-75
2021/08/20 05:23:28;;;;;;;;;;;15.80;99.90;;;;;;5092630;28;19912;-74
2021/08/20 05:25:54;;;;;;;;;;;15.90;99.90;;;;;;5073489;28;20299;-74
2021/08/20 05:28:20;;;;;;;;;;;15.90;99.90;;;;;;5091205;28;19915;-75
2021/08/20 05:30:46;;;;;;;;;;;15.90;99.90;;;;;;5093288;28;19931;-75
2021/08/20 05:33:11;;;;;;;;;;;15.90;99.90;;;;;;5074539;28;19920;-75
2021/08/20 05:35:38;;;;;;;;;;;15.90;99.90;;;;;;5075287;28;19920;-76
2021/08/20 05:38:04;;;;;;;;;;;15.90;99.90;;;;;;5092344;28;20270;-74
2021/08/20 05:40:30;;;;;;;;;;;15.90;99.90;;;;;;5091591;28;19916;-75
2021/08/20 05:42:55;;;;;;;;;;;16.00;99.90;;;;;;5092370;28;19912;-75
2021/08/20 05:45:21;;;;;;;;;;;15.90;99.90;;;;;;5096158;28;19963;-74
2021/08/20 05:47:46;;;;;;;;;;;16.00;99.90;;;;;;5075658;28;19958;-73
2021/08/20 05:50:12;;;;;;;;;;;16.00;99.90;;;;;;5091332;28;20306;-74
2021/08/20 05:52:38;;;;;;;;;;;16.00;99.90;;;;;;5089968;28;20045;-77
2021/08/20 05:55:07;;;;;;;;;;;16.00;99.90;;;;;;5074140;28;19919;-74
2021/08/20 05:57:32;;;;;;;;;;;16.10;99.90;;;;;;5092131;28;20049;-74
2021/08/20 05:59:58;;;;;;;;;;;16.10;99.90;;;;;;5089525;28;20312;-74
2021/08/20 06:02:24;;;;;;;;;;;16.10;99.90;;;;;;5075877;28;19912;-74
2021/08/20 06:04:49;;;;;;;;;;;16.20;99.90;;;;;;5093812;28;19950;-77
2021/08/20 06:07:15;;;;;;;;;;;16.30;99.90;;;;;;5091791;28;19911;-74
2021/08/20 06:09:41;;;;;;;;;;;16.40;99.90;;;;;;5070317;28;19912;-74
2021/08/20 06:12:06;;;;;;;;;;;16.50;99.90;;;;;;5090869;28;19924;-77
2021/08/20 06:14:33;;;;;;;;;;;16.60;99.90;;;;;;5082349;28;19912;-78
2021/08/20 06:16:59;;;;;;;;;;;16.60;99.90;;;;;;5070559;28;19987;-74
2021/08/20 06:19:24;;;;;;;;;;;16.60;99.90;;;;;;5075667;28;19919;-74
2021/08/20 06:21:50;;;;;;;;;;;16.70;99.90;;;;;;5092470;28;19958;-74
2021/08/20 06:24:16;;;;;;;;;;;16.70;99.90;;;;;;5086924;28;19916;-74
2021/08/20 06:26:42;;;;;;;;;;;16.80;99.90;;;;;;5085428;28;19929;-74
2021/08/20 06:29:07;;;;;;;;;;;16.90;99.90;;;;;;5088224;28;20730;-76
2021/08/20 06:31:33;;;;;;;;;;;17.00;99.90;;;;;;5091792;28;19993;-77
2021/08/20 06:33:58;;;;;;;;;;;17.00;99.90;;;;;;5088261;28;19916;-81
2021/08/20 06:36:24;;;;;;;;;;;17.00;99.90;;;;;;5072833;28;19920;-78
2021/08/20 06:38:50;;;;;;;;;;;17.00;99.90;;;;;;5073526;28;19962;-76
2021/08/20 06:41:16;;;;;;;;;;;17.00;99.90;;;;;;5089731;28;19939;-75
2021/08/20 06:43:41;;;;;;;;;;;16.90;99.90;;;;;;5089111;28;20029;-76
2021/08/20 06:46:07;;;;;;;;;;;16.90;99.90;;;;;;5091562;28;19916;-75
2021/08/20 06:48:33;;;;;;;;;;;16.90;99.90;;;;;;5072304;28;20002;-82
2021/08/20 06:50:58;;;;;;;;;;;16.90;99.90;;;;;;5069452;28;19958;-74
2021/08/20 06:53:24;;;;;;;;;;;17.00;99.90;;;;;;5097986;28;19916;-74
2021/08/20 06:55:50;;;;;;;;;;;17.10;99.90;;;;;;5099837;28;19950;-84
2021/08/20 06:58:15;;;;;;;;;;;17.10;99.90;;;;;;5078216;28;19920;-83
2021/08/20 07:00:41;;;;;;;;;;;17.20;99.90;;;;;;5091573;28;19920;-74
2021/08/20 07:03:07;;;;;;;;;;;17.30;99.90;;;;;;5092775;28;19908;-84
2021/08/20 07:05:33;;;;;;;;;;;17.40;99.90;;;;;;5078173;28;19912;-75
2021/08/20 07:07:59;;;;;;;;;;;17.50;99.90;;;;;;5078827;28;19961;-75
2021/08/20 07:10:24;;;;;;;;;;;17.50;99.90;;;;;;5094554;28;20006;-78
2021/08/20 07:12:50;;;;;;;;;;;17.60;99.90;;;;;;5075806;28;19999;-87
2021/08/20 07:15:16;;;;;;;;;;;17.60;99.90;;;;;;5089103;28;19985;-85
2021/08/20 07:17:41;;;;;;;;;;;17.70;99.90;;;;;;5094376;28;19912;-77
2021/08/20 07:20:08;;;;;;;;;;;17.80;99.90;;;;;;5091741;28;19943;-79
2021/08/20 07:22:33;;;;;;;;;;;18.00;99.90;;;;;;5093315;28;19987;-82
2021/08/20 07:24:59;;;;;;;;;;;18.10;99.90;;;;;;5095777;28;20008;-74
2021/08/20 07:27:24;;;;;;;;;;;18.30;99.90;;;;;;5092811;28;19931;-86
2021/08/20 07:29:50;;;;;;;;;;;18.40;99.90;;;;;;5079347;28;19912;-80
2021/08/20 07:32:16;;;;;;;;;;;18.50;99.90;;;;;;5087754;28;19920;-88
2021/08/20 07:34:42;;;;;;;;;;;18.50;99.90;;;;;;5079023;28;20013;-86
2021/08/20 07:37:07;;;;;;;;;;;18.50;99.90;;;;;;5076546;28;20314;-76
2021/08/20 07:39:36;;;;;;;;;;;18.50;99.90;;;;;;5091281;28;20010;-85
2021/08/20 07:42:02;;;;;;;;;;;18.50;99.90;;;;;;5074617;28;20330;-75
2021/08/20 07:44:28;;;;;;;;;;;18.60;99.90;;;;;;5084560;28;19920;-79
2021/08/20 07:46:53;;;;;;;;;;;18.80;99.90;;;;;;5070749;28;19924;-81
2021/08/20 07:49:19;;;;;;;;;;;18.80;99.90;;;;;;5087683;28;19912;-88
2021/08/20 07:51:44;;;;;;;;;;;18.90;99.90;;;;;;5078974;28;20618;-87
2021/08/20 07:54:10;;;;;;;;;;;18.90;99.90;;;;;;5100605;28;19931;-74
2021/08/20 07:56:36;;;;;;;;;;;19.10;99.90;;;;;;5084404;28;19951;-75
2021/08/20 07:59:01;;;;;;;;;;;19.30;99.90;;;;;;5074766;28;20218;-83
2021/08/20 08:01:27;;;;;;;;;;;19.40;99.90;;;;;;5097202;28;19912;-82
2021/08/20 08:03:57;;;;;;;;;;;19.40;99.90;;;;;;5092011;28;19927;-85
2021/08/20 08:06:26;;;;;;;;;;;19.30;99.90;;;;;;5090215;28;19916;-86
2021/08/20 08:08:51;;;;;;;;;;;19.20;99.90;;;;;;5091786;28;19923;-75
2021/08/20 08:11:17;;;;;;;;;;;19.10;99.90;;;;;;5087972;28;19919;-76
2021/08/20 08:13:43;;;;;;;;;;;19.10;99.90;;;;;;5087938;28;20403;-75
2021/08/20 08:16:08;;;;;;;;;;;19.20;99.90;;;;;;5086273;28;19920;-76
2021/08/20 08:18:34;;;;;;;;;;;19.50;99.90;;;;;;5084956;28;20257;-86
2021/08/20 08:21:00;;;;;;;;;;;19.50;99.90;;;;;;5068117;28;19923;-84
2021/08/20 08:23:25;;;;;;;;;;;19.50;99.90;;;;;;5085607;28;20027;-79
2021/08/20 08:25:51;;;;;;;;;;;19.50;99.90;;;;;;5087284;28;19963;-75
2021/08/20 08:28:16;;;;;;;;;;;19.50;99.90;;;;;;5092518;28;20303;-85
2021/08/20 08:30:42;;;;;;;;;;;19.50;99.90;;;;;;5067115;28;19919;-81
2021/08/20 08:33:08;;;;;;;;;;;19.50;99.90;;;;;;5091130;28;19912;-86
2021/08/20 08:35:34;;;;;;;;;;;19.40;99.90;;;;;;5085818;28;19954;-80
2021/08/20 08:38:07;;;;;;;;;;;19.50;99.90;;;;;;5065080;28;19917;-85
2021/08/20 08:40:33;;;;;;;;;;;19.70;99.90;;;;;;5075382;28;19912;-82
2021/08/20 08:42:59;;;;;;;;;;;20.10;99.90;;;;;;5092745;28;20039;-78
2021/08/20 08:45:25;;;;;;;;;;;20.20;99.90;;;;;;5090093;28;20310;-83
2021/08/20 08:47:54;;;;;;;;;;;20.20;99.90;;;;;;5075254;28;19916;-82
2021/08/20 08:50:20;;;;;;;;;;;20.20;99.90;;;;;;5098675;28;19916;-88
2021/08/20 08:52:46;;;;;;;;;;;20.10;99.90;;;;;;5076718;28;20224;-76
2021/08/20 08:55:12;;;;;;;;;;;20.10;99.90;;;;;;5090484;28;20322;-84
2021/08/20 08:57:38;;;;;;;;;;;20.00;99.90;;;;;;5095701;28;20055;-88
2021/08/20 09:00:04;;;;;;;;;;;20.10;99.90;;;;;;5094573;28;19916;-87
2021/08/20 09:02:31;;;;;;;;;;;20.10;99.90;;;;;;5080292;28;19916;-81
2021/08/20 09:05:00;;;;;;;;;;;20.10;99.90;;;;;;5091228;28;20323;-79
2021/08/20 09:07:27;;;;;;;;;;;20.10;99.90;;;;;;5072294;28;19916;-76
2021/08/20 09:10:12;;;;;;;;;;;20.10;99.90;;;;;;5087804;28;19916;-82
2021/08/20 09:12:40;;;;;;;;;;;20.00;99.90;;;;;;5088411;28;19966;-80
2021/08/20 09:15:06;;;;;;;;;;;20.10;99.90;;;;;;5087732;28;20134;-88
2021/08/20 09:17:33;;;;;;;;;;;20.10;99.90;;;;;;5070137;28;19927;-81
2021/08/20 09:20:15;;;;;;;;;;;20.20;99.90;;;;;;5090746;28;19912;-77
2021/08/20 09:22:41;;;;;;;;;;;20.10;99.90;;;;;;5088994;28;19908;-87
2021/08/20 09:25:07;;;;;;;;;;;20.20;99.90;;;;;;5074348;28;19927;-75
2021/08/20 09:27:32;;;;;;;;;;;20.50;99.90;;;;;;5085759;28;20383;-78
2021/08/20 09:30:07;;;;;;;;;;;20.80;99.90;;;;;;5092752;28;19912;-84
2021/08/20 09:32:33;;;;;;;;;;;20.90;99.90;;;;;;5084996;28;19939;-75
2021/08/20 09:34:59;;;;;;;;;;;21.00;99.90;;;;;;5086838;28;19912;-86
2021/08/20 09:37:26;;;;;;;;;;;21.10;99.90;;;;;;5069852;28;19927;-83
2021/08/20 09:39:57;;;;;;;;;;;21.10;99.90;;;;;;5086475;28;19965;-87
2021/08/20 09:42:25;;;;;;;;;;;21.10;99.90;;;;;;5087258;28;20198;-83
2021/08/20 09:45:10;;;;;;;;;;;21.00;99.90;;;;;;5086291;28;20362;-90
2021/08/20 09:47:40;;;;;;;;;;;20.90;99.90;;;;;;5073472;28;19913;-78
2021/08/20 09:50:05;;;;;;;;;;;20.70;99.90;;;;;;5088795;28;19908;-75
2021/08/20 09:52:31;;;;;;;;;;;20.60;99.90;;;;;;5089825;28;19924;-75
2021/08/20 09:54:57;;;;;;;;;;;20.60;99.90;;;;;;5092142;28;20330;-79
2021/08/20 09:57:24;;;;;;;;;;;20.40;99.90;;;;;;5088013;28;19935;-77
2021/08/20 09:59:49;;;;;;;;;;;20.30;99.90;;;;;;5092364;28;19908;-78
2021/08/20 10:02:18;;;;;;;;;;;20.30;99.90;;;;;;5074477;28;19961;-83
2021/08/20 10:04:44;;;;;;;;;;;20.40;99.90;;;;;;5075473;28;20345;-85
2021/08/20 10:07:11;;;;;;;;;;;20.70;99.90;;;;;;5075810;28;20015;-80
2021/08/20 10:09:37;;;;;;;;;;;21.10;99.90;;;;;;5085402;28;19950;-79
2021/08/20 10:12:04;;;;;;;;;;;21.30;99.90;;;;;;5073221;28;19955;-76
2021/08/20 10:14:30;;;;;;;;;;;21.50;99.90;;;;;;5074392;28;19973;-75
2021/08/20 10:16:56;;;;;;;;;;;21.50;99.90;;;;;;5075068;28;19916;-79
2021/08/20 10:19:21;;;;;;;;;;;21.60;99.90;;;;;;5075099;28;19919;-80
2021/08/20 10:21:48;;;;;;;;;;;21.60;99.90;;;;;;5085416;28;19965;-82
2021/08/20 10:24:14;;;;;;;;;;;21.50;99.90;;;;;;5090547;28;20310;-77
2021/08/20 10:26:42;;;;;;;;;;;21.40;99.90;;;;;;5065145;28;19909;-75
2021/08/20 10:29:08;;;;;;;;;;;21.30;99.90;;;;;;5091031;28;20385;-80
2021/08/20 10:31:34;;;;;;;;;;;21.20;99.90;;;;;;5077691;28;19912;-79
2021/08/20 10:34:00;;;;;;;;;;;21.10;99.90;;;;;;5095039;28;19912;-78
2021/08/20 10:36:35;;;;;;;;;;;21.00;99.90;;;;;;5089441;28;20017;-82
2021/08/20 10:39:02;;;;;;;;;;;20.90;99.90;;;;;;5082022;28;19920;-80
2021/08/20 10:41:28;;;;;;;;;;;20.80;99.90;;;;;;5070691;28;19914;-76
2021/08/20 10:44:01;;;;;;;;;;;20.90;99.90;;;;;;5072257;28;20043;-83
2021/08/20 10:46:37;;;;;;;;;;;21.00;99.90;;;;;;5064948;28;19919;-75
2021/08/20 10:49:29;;;;;;;;;;;21.00;99.90;;;;;;5056974;28;19912;-80
2021/08/20 10:52:01;;;;;;;;;;;21.00;99.90;;;;;;5074059;28;19916;-86
2021/08/20 10:54:42;;;;;;;;;;;21.10;99.90;;;;;;5094177;28;19955;-78
2021/08/20 10:57:10;;;;;;;;;;;21.10;99.90;;;;;;5081215;28;19928;-79
2021/08/20 10:59:54;;;;;;;;;;;21.10;99.90;;;;;;5084329;28;20355;-84
2021/08/20 11:02:19;;;;;;;;;;;21.00;99.90;;;;;;5081950;28;19922;-75
2021/08/20 11:04:58;;;;;;;;;;;21.10;99.90;;;;;;5074490;28;19912;-81
2021/08/20 11:07:36;;;;;;;;;;;21.20;99.90;;;;;;5093318;28;19919;-76
2021/08/20 11:10:08;;;;;;;;;;;21.40;99.90;;;;;;5072765;28;19912;-82
2021/08/20 11:12:37;;;;;;;;;;;21.70;99.90;;;;;;5071262;28;20008;-82
2021/08/20 11:15:21;;;;;;;;;;;22.10;99.90;;;;;;5071395;28;19909;-75
2021/08/20 11:17:50;;;;;;;;;;;22.40;99.90;;;;;;5073937;28;20338;-80
2021/08/20 11:20:25;;;;;;;;;;;22.70;99.90;;;;;;5068611;28;20208;-76
2021/08/20 11:23:12;;;;;;;;;;;22.80;99.90;;;;;;5072496;28;19912;-75
2021/08/20 11:25:38;;;;;;;;;;;22.90;99.90;;;;;;5088147;28;19974;-80
2021/08/20 11:28:05;;;;;;;;;;;23.10;99.90;;;;;;5079041;28;19924;-80
2021/08/20 11:30:32;;;;;;;;;;;23.00;99.90;;;;;;5075772;28;19970;-76
2021/08/20 11:33:12;;;;;;;;;;;22.90;99.90;;;;;;5076753;28;19912;-79
2021/08/20 11:35:37;;;;;;;;;;;22.60;99.90;;;;;;5085246;28;20215;-76
2021/08/20 11:38:03;;;;;;;;;;;22.40;99.90;;;;;;5083578;28;19912;-79
2021/08/20 11:40:29;;;;;;;;;;;22.20;99.90;;;;;;5071295;28;19909;-76
2021/08/20 11:43:09;;;;;;;;;;;22.20;99.90;;;;;;5089061;28;19928;-76
2021/08/20 11:45:35;;;;;;;;;;;22.10;99.90;;;;;;5066886;28;19917;-82
2021/08/20 11:48:01;;;;;;;;;;;22.10;99.90;;;;;;5051610;28;19909;-76
2021/08/20 11:50:27;;;;;;;;;;;22.10;99.90;;;;;;5066447;28;20367;-74
2021/08/20 11:52:52;;;;;;;;;;;22.00;99.90;;;;;;5072983;28;20220;-79
2021/08/20 11:55:19;;;;;;;;;;;22.00;99.90;;;;;;5057227;28;19913;-85
2021/08/20 11:57:44;;;;;;;;;;;21.90;99.90;;;;;;5075866;28;19917;-83
2021/08/20 12:00:11;;;;;;;;;;;21.90;99.90;;;;;;5054839;28;19913;-75
2021/08/20 12:02:36;;;;;;;;;;;22.10;99.90;;;;;;5055094;28;20258;-80
2021/08/20 12:05:15;;;;;;;;;;;22.40;99.90;;;;;;5069348;28;19909;-78
2021/08/20 12:07:41;;;;;;;;;;;22.60;99.90;;;;;;5056327;28;19912;-76
2021/08/20 12:10:08;;;;;;;;;;;22.70;99.90;;;;;;5071418;28;20074;-82
2021/08/20 12:12:36;;;;;;;;;;;22.60;99.90;;;;;;5067578;28;20114;-81
2021/08/20 12:15:02;;;;;;;;;;;22.50;99.90;;;;;;5065453;28;19916;-82
2021/08/20 12:17:33;;;;;;;;;;;22.40;99.90;;;;;;5075867;28;20317;-78
2021/08/20 12:19:58;;;;;;;;;;;22.30;99.90;;;;;;5056564;28;19908;-78
2021/08/20 12:22:39;;;;;;;;;;;22.20;99.90;;;;;;5068023;28;20015;-76
2021/08/20 12:25:15;;;;;;;;;;;22.20;99.90;;;;;;5056881;28;19920;-84
2021/08/20 12:27:42;;;;;;;;;;;22.30;99.90;;;;;;5061629;28;20304;-77
2021/08/20 12:30:11;;;;;;;;;;;22.30;99.90;;;;;;5058155;28;19912;-76
2021/08/20 12:32:40;;;;;;;;;;;22.50;99.90;;;;;;5048635;28;19916;-81
2021/08/20 12:35:05;;;;;;;;;;;22.60;99.90;;;;;;5055429;28;20613;-80
2021/08/20 12:37:32;;;;;;;;;;;22.60;99.90;;;;;;5055104;28;19921;-80
2021/08/20 12:40:05;;;;;;;;;;;22.60;99.90;;;;;;5058420;28;19920;-82
2021/08/20 12:42:30;;;;;;;;;;;22.60;99.90;;;;;;5072467;28;20022;-75
2021/08/20 12:45:05;;;;;;;;;;;22.70;99.90;;;;;;5068379;28;20309;-81
2021/08/20 12:47:31;;;;;;;;;;;22.70;99.90;;;;;;5075321;28;20001;-78
2021/08/20 12:49:57;;;;;;;;;;;22.70;99.90;;;;;;5075549;28;20028;-80
2021/08/20 12:52:24;;;;;;;;;;;22.60;99.90;;;;;;5095124;28;19912;-76
2021/08/20 12:54:50;;;;;;;;;;;22.60;99.90;;;;;;5076902;28;19916;-81
2021/08/20 12:57:18;;;;;;;;;;;22.50;99.90;;;;;;5093831;28;19970;-80
2021/08/20 12:59:44;;;;;;;;;;;22.40;99.90;;;;;;5089861;28;20331;-78
2021/08/20 13:02:10;;;;;;;;;;;22.40;99.90;;;;;;5089386;28;19954;-76
2021/08/20 13:04:35;;;;;;;;;;;22.40;99.90;;;;;;5072789;28;19951;-83
2021/08/20 13:07:01;;;;;;;;;;;22.30;99.90;;;;;;5092311;28;19912;-79
2021/08/20 13:09:27;;;;;;;;;;;22.40;99.90;;;;;;5079321;28;19912;-78
2021/08/20 13:11:52;;;;;;;;;;;22.50;99.90;;;;;;5075086;28;19919;-78
2021/08/20 13:14:18;;;;;;;;;;;22.40;99.90;;;;;;5084177;28;20318;-82
2021/08/20 13:16:44;;;;;;;;;;;22.40;99.90;;;;;;5078002;28;19916;-81
2021/08/20 13:19:09;;;;;;;;;;;22.40;99.90;;;;;;5088030;28;19915;-77
2021/08/20 13:21:35;;;;;;;;;;;22.60;99.90;;;;;;5065454;28;20279;-80
2021/08/20 13:24:00;;;;;;;;;;;22.60;99.90;;;;;;5088054;28;19919;-77
2021/08/20 13:26:26;;;;;;;;;;;22.60;99.90;;;;;;5074165;28;19920;-76
2021/08/20 13:28:51;;;;;;;;;;;22.60;99.90;;;;;;5088780;28;20298;-77
2021/08/20 13:31:17;;;;;;;;;;;22.60;99.90;;;;;;5068334;28;20223;-78
2021/08/20 13:33:43;;;;;;;;;;;22.70;99.90;;;;;;5096594;28;19916;-83
2021/08/20 13:36:08;;;;;;;;;;;22.90;99.90;;;;;;5090108;28;19923;-76
2021/08/20 13:38:34;;;;;;;;;;;22.90;99.90;;;;;;5086759;28;19931;-78
2021/08/20 13:41:00;;;;;;;;;;;23.00;99.90;;;;;;5069907;28;19916;-81
2021/08/20 13:43:27;;;;;;;;;;;23.00;99.90;;;;;;5087070;28;19922;-77
2021/08/20 13:45:52;;;;;;;;;;;22.80;99.90;;;;;;5066879;28;19924;-78
2021/08/20 13:48:18;;;;;;;;;;;22.60;99.90;;;;;;5068689;28;19916;-77
2021/08/20 13:50:44;;;;;;;;;;;22.40;99.90;;;;;;5068692;28;19916;-82
2021/08/20 13:53:10;;;;;;;;;;;22.30;99.90;;;;;;5072070;28;19951;-76
2021/08/20 13:55:36;;;;;;;;;;;22.10;99.90;;;;;;5090792;28;20003;-85
2021/08/20 13:58:03;;;;;;;;;;;22.00;99.90;;;;;;5073652;28;19920;-82
2021/08/20 14:00:29;;;;;;;;;;;22.10;99.90;;;;;;5091268;28;19912;-82
2021/08/20 14:02:54;;;;;;;;;;;22.10;99.90;;;;;;5074609;28;19919;-77
2021/08/20 14:05:20;;;;;;;;;;;22.30;99.90;;;;;;5090578;28;19927;-82
2021/08/20 14:07:46;;;;;;;;;;;22.40;99.90;;;;;;5073706;28;19916;-76
2021/08/20 14:10:12;;;;;;;;;;;22.60;99.90;;;;;;5075797;28;19958;-79
2021/08/20 14:12:37;;;;;;;;;;;22.70;99.90;;;;;;5068595;28;19912;-81
2021/08/20 14:15:03;;;;;;;;;;;22.60;99.90;;;;;;5090061;28;19974;-76